Time;durP1;ratioP1;P1;durP2;ratioP2;P2;SDS_P1;SDS_P2;PMS_P1;PMS_P2;Temp;Humidity;BMP_temperature;BMP_pressure;BME280_temperature;BME280_humidity;BME280_pressure;Samples;Min_cycle;Max_cycle;Signal;HPM_P1;HPM_P2
2022/06/07 00:00:19;;;;;;;4.80;1.33;;;18.40;99.90;;;;;;5061971;28;20561;-78
2022/06/07 00:02:55;;;;;;;3.38;1.52;;;18.40;99.90;;;;;;5076566;28;20114;-78
2022/06/07 00:05:37;;;;;;;2.95;1.25;;;18.40;99.90;;;;;;5061713;28;20053;-78
2022/06/07 00:08:09;;;;;;;;;;;18.20;99.90;;;;;;5062924;28;21205;-78
2022/06/07 00:10:47;;;;;;;3.05;1.35;;;17.90;99.90;;;;;;5061099;28;19920;-78
2022/06/07 00:13:26;;;;;;;1.88;1.20;;;18.60;99.90;;;;;;5058032;28;20066;-79
2022/06/07 00:16:13;;;;;;;1.58;1.05;;;18.40;99.90;;;;;;5046971;28;20045;-78
2022/06/07 00:18:52;;;;;;;1.70;1.35;;;18.50;99.90;;;;;;5059586;28;20931;-78
2022/06/07 00:21:47;;;;;;;2.15;1.42;;;18.30;99.90;;;;;;5041881;28;20052;-78
2022/06/07 00:24:19;;;;;;;1.65;1.10;;;18.40;99.90;;;;;;5060524;28;20592;-78
2022/06/07 00:27:08;;;;;;;2.25;0.93;;;18.30;99.90;;;;;;5061621;28;20103;-79
2022/06/07 00:29:51;;;;;;;1.42;1.00;;;18.40;99.90;;;;;;5078329;28;20114;-79
2022/06/07 00:32:48;;;;;;;3.42;0.90;;;18.30;99.90;;;;;;5059636;28;20535;-78
2022/06/07 00:35:22;;;;;;;2.08;0.90;;;18.40;99.90;;;;;;5044054;28;20558;-79
2022/06/07 00:38:03;;;;;;;3.70;1.20;;;18.30;99.90;;;;;;5057873;28;20115;-78
2022/06/07 00:40:43;;;;;;;1.73;1.10;;;18.30;99.90;;;;;;5059617;28;20053;-78
2022/06/07 00:43:17;;;;;;;1.58;1.17;;;18.30;99.90;;;;;;5075812;28;21017;-78
2022/06/07 00:45:49;;;;;;;1.25;1.00;;;18.10;99.90;;;;;;5061840;28;20044;-79
2022/06/07 00:48:22;;;;;;;;;;;18.30;99.90;;;;;;5046978;28;20597;-78
2022/06/07 00:51:04;;;;;;;1.52;1.10;;;18.30;99.90;;;;;;5060496;28;19994;-78
2022/06/07 00:53:32;;;;;;;1.25;0.98;;;18.30;99.90;;;;;;5059840;28;20083;-78
2022/06/07 00:56:19;;;;;;;2.30;1.15;;;18.20;99.90;;;;;;5063330;28;20121;-78
2022/06/07 00:59:17;;;;;;;1.88;1.23;;;18.90;99.90;;;;;;5052669;28;20056;-79
2022/06/07 01:01:54;;;;;;;1.85;1.20;;;18.80;99.90;;;;;;5068618;28;20425;-78
2022/06/07 01:04:34;;;;;;;;;;;;;;;;;;;;;
2022/06/07 01:12:54;;;;;;;1.48;0.90;;;18.30;99.90;;;;;;5062067;28;20049;-78
2022/06/07 01:18:27;;;;;;;4.25;1.30;;;18.30;99.90;;;;;;5064033;28;20434;-79
2022/06/07 01:21:20;;;;;;;2.28;1.20;;;18.40;99.90;;;;;;5064413;28;20541;-78
2022/06/07 01:23:51;;;;;;;;;;;18.30;99.90;;;;;;5046997;28;20053;-77
2022/06/07 01:29:34;;;;;;;3.63;1.58;;;18.60;99.90;;;;;;5054766;28;20553;-79
2022/06/07 01:32:15;;;;;;;3.15;1.27;;;18.20;99.90;;;;;;5060733;28;20036;-78
2022/06/07 01:34:53;;;;;;;1.38;1.05;;;18.20;99.90;;;;;;5063475;28;20076;-78
2022/06/07 01:37:25;;;;;;;3.63;1.33;;;18.10;99.90;;;;;;5060614;28;20037;-78
2022/06/07 01:42:56;;;;;;;1.70;1.08;;;18.10;99.90;;;;;;5064804;28;20085;-78
2022/06/07 01:45:37;;;;;;;3.15;1.48;;;17.90;99.90;;;;;;5062776;28;20506;-77
2022/06/07 01:48:18;;;;;;;;;;;;;;;;;;;;;
2022/06/07 01:50:55;;;;;;;5.68;1.55;;;18.10;99.90;;;;;;5062462;28;45413;-78
2022/06/07 01:53:26;;;;;;;3.58;1.35;;;18.20;99.90;;;;;;5063132;28;20048;-78
2022/06/07 01:56:02;;;;;;;2.35;1.00;;;18.40;99.90;;;;;;5064833;28;20045;-78
2022/06/07 02:01:32;;;;;;;5.43;1.50;;;18.20;99.90;;;;;;5060418;28;20049;-77
2022/06/07 02:04:14;;;;;;;3.03;1.30;;;18.30;99.90;;;;;;5047796;28;20993;-78
2022/06/07 02:06:42;;;;;;;4.38;1.58;;;18.30;99.90;;;;;;5063529;28;20509;-78
2022/06/07 02:09:28;;;;;;;5.65;1.63;;;18.20;99.90;;;;;;5061534;28;20044;-78
2022/06/07 02:12:19;;;;;;;4.63;1.75;;;18.00;99.90;;;;;;5063102;28;20881;-78
2022/06/07 02:15:15;;;;;;;2.97;1.73;;;18.10;99.90;;;;;;5079534;28;20045;-78
2022/06/07 02:18:03;;;;;;;5.55;2.03;;;18.00;99.90;;;;;;5064157;28;20040;-78
2022/06/07 02:20:34;;;;;;;4.18;1.58;;;17.40;99.90;;;;;;5064180;28;21123;-78
2022/06/07 02:23:11;;;;;;;2.85;1.75;;;17.90;99.90;;;;;;5063306;28;20045;-78
2022/06/07 02:26:06;;;;;;;3.55;2.05;;;18.20;99.90;;;;;;5062276;28;20568;-78
2022/06/07 02:28:55;;;;;;;2.17;1.50;;;17.40;99.90;;;;;;5057570;28;20637;-78
2022/06/07 02:31:29;;;;;;;3.58;1.85;;;18.00;99.90;;;;;;5061254;28;20141;-78
2022/06/07 02:33:59;;;;;;;2.40;1.65;;;18.00;99.90;;;;;;5061908;28;20120;-78
2022/06/07 02:36:46;;;;;;;3.90;1.67;;;18.00;99.90;;;;;;5079089;28;20640;-78
2022/06/07 02:39:24;;;;;;;3.33;2.05;;;18.00;99.90;;;;;;5062549;28;20557;-78
2022/06/07 02:41:57;;;;;;;2.40;1.70;;;18.00;99.90;;;;;;5064397;28;20449;-78
2022/06/07 02:44:38;;;;;;;2.42;1.90;;;18.00;99.90;;;;;;5063236;28;20274;-78
2022/06/07 02:47:21;;;;;;;2.25;1.55;;;18.00;99.90;;;;;;5043340;28;20041;-78
2022/06/07 02:49:52;;;;;;;2.53;1.45;;;18.00;99.90;;;;;;5041686;28;20132;-78
2022/06/07 02:52:26;;;;;;;2.38;1.30;;;17.70;99.90;;;;;;5041754;28;20056;-78
2022/06/07 02:55:02;;;;;;;2.25;1.52;;;17.90;99.90;;;;;;5028032;28;20516;-78
2022/06/07 02:57:46;;;;;;;2.40;1.67;;;18.00;99.90;;;;;;5041416;28;20558;-78
2022/06/07 03:00:30;;;;;;;1.98;1.50;;;18.00;99.90;;;;;;5041633;28;20040;-77
2022/06/07 03:03:02;;;;;;;2.78;1.63;;;18.00;99.90;;;;;;5041011;28;20046;-78
2022/06/07 03:05:33;;;;;;;5.68;1.92;;;18.40;99.90;;;;;;5038817;28;20061;-77
2022/06/07 03:08:14;;;;;;;4.07;1.97;;;17.80;99.90;;;;;;5040958;28;20045;-77
2022/06/07 03:10:49;;;;;;;4.75;2.00;;;17.80;99.90;;;;;;5044019;28;20620;-78
2022/06/07 03:13:22;;;;;;;3.10;1.77;;;17.80;99.90;;;;;;5043157;28;20053;-78
2022/06/07 03:16:21;;;;;;;;;;;;;;;;;;;;;
2022/06/07 03:19:03;;;;;;;5.65;2.47;;;18.20;99.90;;;;;;5043116;28;42544;-78
2022/06/07 03:21:55;;;;;;;5.35;1.92;;;17.80;99.90;;;;;;5042072;28;20048;-78
2022/06/07 03:24:21;;;;;;;3.75;1.80;;;17.50;99.90;;;;;;5019482;28;20195;-78
2022/06/07 03:26:58;;;;;;;3.72;1.98;;;17.70;99.90;;;;;;5025829;28;20086;-78
2022/06/07 03:29:37;;;;;;;3.47;2.50;;;17.50;99.90;;;;;;5025110;28;20037;-78
2022/06/07 03:32:14;;;;;;;3.92;2.30;;;17.70;99.90;;;;;;5026307;28;20049;-78
2022/06/07 03:34:47;;;;;;;5.32;2.40;;;17.80;99.90;;;;;;5041714;28;20108;-78
2022/06/07 03:37:13;;;;;;;5.80;2.78;;;17.80;99.90;;;;;;5040131;28;20068;-78
2022/06/07 03:39:51;;;;;;;3.95;2.42;;;17.50;99.90;;;;;;5027284;28;20051;-78
2022/06/07 03:42:20;;;;;;;4.15;2.10;;;18.00;99.90;;;;;;5031422;28;20050;-77
2022/06/07 03:44:51;;;;;;;5.85;2.20;;;18.00;99.90;;;;;;5042417;28;20209;-77
2022/06/07 03:47:27;;;;;;;4.72;2.22;;;17.80;99.90;;;;;;5025978;28;20136;-78
2022/06/07 03:50:03;;;;;;;4.43;2.33;;;17.80;99.90;;;;;;5025642;28;20069;-77
2022/06/07 03:52:44;;;;;;;2.30;1.55;;;17.80;99.90;;;;;;5019793;28;20065;-78
2022/06/07 03:55:21;;;;;;;4.10;1.90;;;17.50;99.90;;;;;;5022309;28;20097;-77
2022/06/07 03:57:52;;;;;;;5.55;2.05;;;17.80;99.90;;;;;;5006150;28;20072;-78
2022/06/07 04:00:37;;;;;;;6.75;2.83;;;17.80;99.90;;;;;;5004682;28;20100;-77
2022/06/07 04:03:14;;;;;;;2.67;1.90;;;17.80;99.90;;;;;;5004779;28;20081;-78
2022/06/07 04:05:53;;;;;;;4.68;2.58;;;17.60;99.90;;;;;;5003386;28;20054;-78
2022/06/07 04:08:39;;;;;;;6.60;2.60;;;18.40;99.90;;;;;;5004212;28;20126;-78
2022/06/07 04:11:22;;;;;;;3.00;2.05;;;17.70;99.90;;;;;;5004595;28;20061;-78
2022/06/07 04:13:50;;;;;;;3.38;2.40;;;17.70;99.90;;;;;;5004082;28;20103;-78
2022/06/07 04:16:19;;;;;;;3.75;2.10;;;17.70;99.90;;;;;;5003542;28;20145;-78
2022/06/07 04:18:46;;;;;;;7.30;2.42;;;17.80;99.90;;;;;;5003893;28;22019;-78
2022/06/07 04:21:12;;;;;;;5.03;2.20;;;17.70;99.90;;;;;;5009557;28;20427;-78
2022/06/07 04:23:38;;;;;;;4.28;2.42;;;17.70;99.90;;;;;;5021532;28;20105;-78
2022/06/07 04:26:16;;;;;;;5.15;2.55;;;17.70;99.90;;;;;;5035608;28;20052;-78
2022/06/07 04:28:43;;;;;;;6.07;3.10;;;17.70;99.90;;;;;;5058248;28;20552;-78
2022/06/07 04:31:14;;;;;;;6.47;2.38;;;17.80;99.90;;;;;;5060892;28;20048;-78
2022/06/07 04:33:41;;;;;;;5.83;1.93;;;17.80;99.90;;;;;;5062903;28;20115;-78
2022/06/07 04:36:12;;;;;;;12.30;3.22;;;17.90;99.90;;;;;;5041134;28;20044;-78
2022/06/07 04:38:39;;;;;;;3.03;1.65;;;17.80;99.90;;;;;;5062277;28;20041;-78
2022/06/07 04:41:11;;;;;;;4.93;2.35;;;17.80;99.90;;;;;;5061263;28;20128;-78
2022/06/07 04:43:37;;;;;;;3.33;1.95;;;17.80;99.90;;;;;;5061564;28;20704;-78
2022/06/07 04:46:06;;;;;;;4.22;1.92;;;17.80;99.90;;;;;;5057156;28;20524;-78
2022/06/07 04:48:32;;;;;;;5.30;3.33;;;17.80;99.90;;;;;;5041511;28;20131;-78
2022/06/07 04:51:05;;;;;;;4.50;1.88;;;17.80;99.90;;;;;;5059441;28;20087;-79
2022/06/07 04:53:31;;;;;;;4.30;1.73;;;17.80;99.90;;;;;;5061453;28;20040;-78
2022/06/07 04:55:58;;;;;;;7.30;2.47;;;17.80;99.90;;;;;;5059355;28;20752;-78
2022/06/07 04:58:24;;;;;;;5.32;2.75;;;18.00;99.90;;;;;;5059293;28;20072;-78
2022/06/07 05:00:50;;;;;;;4.38;2.33;;;18.00;99.90;;;;;;5075390;28;20120;-78
2022/06/07 05:03:19;;;;;;;3.25;1.92;;;18.10;99.90;;;;;;5059633;28;20047;-77
2022/06/07 05:05:55;;;;;;;4.15;2.00;;;18.00;99.90;;;;;;5056529;28;20056;-82
2022/06/07 05:08:20;;;;;;;4.70;1.75;;;18.00;99.90;;;;;;5060615;28;20041;-78
2022/06/07 05:10:46;;;;;;;3.95;1.85;;;18.10;99.90;;;;;;5062565;28;20032;-75
2022/06/07 05:13:12;;;;;;;2.95;2.38;;;18.10;99.90;;;;;;5043924;28;20572;-78
2022/06/07 05:15:40;;;;;;;4.22;1.75;;;18.10;99.90;;;;;;5058854;28;20046;-80
2022/06/07 05:18:10;;;;;;;3.90;1.80;;;18.00;99.90;;;;;;5062528;28;20150;-79
2022/06/07 05:20:37;;;;;;;5.75;1.75;;;18.00;99.90;;;;;;5064472;28;20033;-81
2022/06/07 05:23:06;;;;;;;3.20;1.20;;;18.10;99.90;;;;;;5062953;28;21149;-82
2022/06/07 05:25:33;;;;;;;8.70;1.35;;;18.10;99.90;;;;;;5065537;28;20094;-84
2022/06/07 05:28:13;;;;;;;2.17;1.45;;;18.20;99.90;;;;;;5062763;28;20053;-82
2022/06/07 05:30:45;;;;;;;1.38;0.90;;;18.20;99.90;;;;;;5061941;28;20466;-81
2022/06/07 05:33:23;;;;;;;6.68;1.90;;;18.20;99.90;;;;;;5062960;28;21518;-81
2022/06/07 05:35:52;;;;;;;2.92;1.13;;;18.20;99.90;;;;;;5058992;28;20068;-81
2022/06/07 05:41:35;;;;;;;2.63;1.15;;;18.30;99.90;;;;;;5061703;28;20244;-81
2022/06/07 05:44:08;;;;;;;6.15;1.88;;;18.20;99.90;;;;;;5080016;28;20545;-81
2022/06/07 05:46:43;;;;;;;7.00;1.58;;;18.40;99.90;;;;;;5066545;28;20091;-81
2022/06/07 05:49:16;;;;;;;3.05;1.17;;;18.10;99.90;;;;;;5065227;28;20048;-79
2022/06/07 05:51:50;;;;;;;2.00;1.30;;;18.10;99.90;;;;;;5060365;28;20123;-79
2022/06/07 05:54:22;;;;;;;3.70;1.05;;;18.20;99.90;;;;;;5066013;28;20040;-78
2022/06/07 05:56:49;;;;;;;2.15;1.80;;;18.30;99.90;;;;;;5064505;28;20048;-80
2022/06/07 05:59:24;;;;;;;3.40;1.48;;;18.30;99.90;;;;;;5061017;28;20581;-80
2022/06/07 06:02:12;;;;;;;3.03;1.13;;;18.30;99.90;;;;;;5062401;28;20583;-80
2022/06/07 06:04:49;;;;;;;2.63;1.50;;;18.30;99.90;;;;;;5066245;28;21008;-80
2022/06/07 06:07:29;;;;;;;2.25;1.10;;;18.30;99.90;;;;;;5064333;28;20602;-81
2022/06/07 06:10:21;;;;;;;1.98;1.02;;;18.30;99.90;;;;;;5061983;28;20545;-80
2022/06/07 06:12:54;;;;;;;3.45;1.20;;;18.10;99.90;;;;;;5062835;28;20033;-80
2022/06/07 06:15:34;;;;;;;3.45;1.73;;;18.10;99.90;;;;;;5062911;28;20482;-81
2022/06/07 06:18:12;;;;;;;2.70;1.23;;;17.60;99.90;;;;;;5065378;28;20048;-80
2022/06/07 06:23:46;;;;;;;5.65;1.30;;;17.80;99.90;;;;;;5058172;28;20195;-79
2022/06/07 06:26:28;;;;;;;1.77;1.20;;;17.70;99.90;;;;;;5021416;28;20037;-78
2022/06/07 06:29:14;;;;;;;3.05;1.15;;;17.70;99.90;;;;;;5021500;28;21728;-79
2022/06/07 06:32:04;;;;;;;3.13;1.08;;;17.70;99.90;;;;;;5041948;28;20163;-79
2022/06/07 06:34:32;;;;;;;5.88;1.52;;;17.90;99.90;;;;;;5022934;28;20248;-79
2022/06/07 06:37:22;;;;;;;3.20;1.25;;;18.10;99.90;;;;;;5024530;28;20041;-79
2022/06/07 06:39:56;;;;;;;4.97;1.92;;;18.30;99.90;;;;;;5039707;28;20057;-79
2022/06/07 06:42:59;;;;;;;2.97;1.35;;;18.40;99.90;;;;;;5040255;28;20060;-78
2022/06/07 06:45:53;;;;;;;2.83;1.00;;;18.50;99.90;;;;;;5023575;28;20084;-78
2022/06/07 06:48:34;;;;;;;1.00;0.75;;;18.50;99.90;;;;;;5023217;28;20041;-79
2022/06/07 06:51:29;;;;;;;3.83;1.10;;;18.40;99.90;;;;;;5029487;28;20065;-78
2022/06/07 06:54:03;;;;;;;3.20;1.90;;;18.30;99.90;;;;;;5005801;28;20081;-77
2022/06/07 06:56:58;;;;;;;2.45;0.95;;;18.20;99.90;;;;;;5023342;28;20054;-77
2022/06/07 06:59:51;;;;;;;2.78;1.40;;;18.10;99.90;;;;;;5022607;28;20447;-77
2022/06/07 07:05:26;;;;;;;4.55;1.50;;;17.90;99.90;;;;;;5008723;28;20547;-78
2022/06/07 07:11:31;;;;;;;3.33;1.17;;;18.20;99.90;;;;;;5009800;28;20046;-79
2022/06/07 07:14:13;;;;;;;1.00;0.80;;;18.70;99.90;;;;;;5008156;28;20065;-78
2022/06/07 07:17:04;;;;;;;3.20;1.60;;;18.80;99.90;;;;;;5008310;28;20649;-78
2022/06/07 07:19:54;;;;;;;1.42;0.80;;;19.20;99.90;;;;;;5006983;28;20080;-78
2022/06/07 07:22:43;;;;;;;2.85;1.38;;;18.60;99.90;;;;;;5023334;28;20145;-78
2022/06/07 07:28:32;;;;;;;4.35;1.67;;;18.40;99.90;;;;;;5046383;28;20367;-77
2022/06/07 07:34:25;;;;;;;1.88;0.77;;;18.30;99.90;;;;;;5046720;28;21149;-77
2022/06/07 07:37:05;;;;;;;3.75;1.25;;;18.50;99.90;;;;;;5045814;28;20565;-77
2022/06/07 07:39:52;;;;;;;1.23;0.77;;;18.60;99.90;;;;;;5046027;28;20523;-77
2022/06/07 07:42:49;;;;;;;0.70;0.65;;;18.50;99.90;;;;;;5046856;28;20065;-78
2022/06/07 07:45:17;;;;;;;0.65;0.60;;;19.00;99.90;;;;;;5044466;28;20053;-77
2022/06/07 07:51:58;;;;;;;1.15;0.82;;;18.50;99.90;;;;;;5045326;28;20625;-77
2022/06/07 07:54:46;;;;;;;2.10;0.98;;;18.50;99.90;;;;;;5062429;28;20127;-77
2022/06/07 07:57:20;;;;;;;2.70;0.95;;;18.80;99.90;;;;;;5047283;28;20603;-78
2022/06/07 08:00:22;;;;;;;1.35;0.80;;;19.10;99.90;;;;;;5046490;28;20041;-78
2022/06/07 08:03:01;;;;;;;1.27;0.90;;;19.50;99.90;;;;;;5060222;28;20049;-78
2022/06/07 08:05:45;;;;;;;1.75;0.88;;;19.40;99.90;;;;;;5045759;28;20592;-78
2022/06/07 08:08:31;;;;;;;1.27;0.55;;;19.40;99.90;;;;;;5061083;28;20113;-78
2022/06/07 08:11:19;;;;;;;1.08;0.80;;;19.00;99.90;;;;;;5045240;28;20908;-78
2022/06/07 08:13:58;;;;;;;2.08;1.73;;;19.40;99.90;;;;;;5046760;28;20053;-78
2022/06/07 08:16:24;;;;;;;2.75;1.05;;;19.10;99.90;;;;;;5055108;28;20169;-78
2022/06/07 08:19:18;;;;;;;1.92;0.95;;;19.40;99.90;;;;;;5047557;28;20412;-78
2022/06/07 08:21:52;;;;;;;1.50;0.98;;;19.40;99.90;;;;;;5045550;28;20044;-78
2022/06/07 08:24:36;;;;;;;1.67;0.93;;;19.70;99.90;;;;;;5046509;28;20551;-78
2022/06/07 08:27:28;;;;;;;3.47;1.30;;;19.80;99.90;;;;;;5058711;28;20053;-78
2022/06/07 08:30:24;;;;;;;;;;;;;;;;;;;;;
2022/06/07 08:39:41;;;;;;;1.88;1.77;;;20.10;99.90;;;;;;5064852;28;20041;-78
2022/06/07 08:42:48;;;;;;;2.15;0.82;;;20.30;99.90;;;;;;5065455;28;20048;-78
2022/06/07 08:45:32;;;;;;;2.33;0.90;;;20.40;99.90;;;;;;4979411;28;20181;-77
2022/06/07 08:48:21;;;;;;;;;;;;;;;;;;;;;
2022/06/07 08:51:41;;;;;;;1.63;1.00;;;20.20;99.90;;;;;;5063678;28;42060;-78
2022/06/07 08:54:31;;;;;;;4.30;0.80;;;20.20;99.90;;;;;;5059847;28;20053;-78
2022/06/07 09:01:12;;;;;;;1.98;0.75;;;20.30;99.90;;;;;;5066259;28;20088;-78
2022/06/07 09:04:24;;;;;;;;;;;;;;;;;;;;;
2022/06/07 09:07:20;;;;;;;1.27;0.90;;;20.80;99.90;;;;;;5063426;28;42155;-78
2022/06/07 09:13:19;;;;;;;5.40;1.30;;;20.40;99.90;;;;;;5065032;28;20122;-78
2022/06/07 09:16:28;;;;;;;;;;;;;;;;;;;;;
2022/06/07 09:19:55;;;;;;;2.13;1.10;;;20.70;99.90;;;;;;5068113;28;40449;-78
2022/06/07 09:23:04;;;;;;;1.63;0.77;;;20.90;99.90;;;;;;5011206;28;20041;-78
2022/06/07 09:25:49;;;;;;;1.70;0.75;;;20.80;99.90;;;;;;4998651;28;20046;-79
2022/06/07 09:28:27;;;;;;;2.88;1.00;;;20.70;99.90;;;;;;4997780;28;20635;-78
2022/06/07 09:31:11;;;;;;;11.27;1.10;;;20.50;99.90;;;;;;5033237;28;20419;-78
2022/06/07 09:33:48;;;;;;;3.47;1.50;;;20.20;99.90;;;;;;5068596;28;20049;-78
2022/06/07 09:36:27;;;;;;;2.15;1.10;;;20.00;99.90;;;;;;5049554;28;20052;-78
2022/06/07 09:38:58;;;;;;;2.15;0.98;;;19.80;99.90;;;;;;5066482;28;20037;-78
2022/06/07 09:41:39;;;;;;;4.00;1.17;;;19.90;99.90;;;;;;5068164;28;20064;-78
2022/06/07 09:44:29;;;;;;;5.90;1.45;;;20.00;99.90;;;;;;5067473;28;20040;-78
2022/06/07 09:47:10;;;;;;;7.22;2.58;;;20.10;99.90;;;;;;5066217;28;20037;-78
2022/06/07 09:49:46;;;;;;;5.77;2.07;;;20.30;99.90;;;;;;5066519;28;20042;-78
2022/06/07 09:52:23;;;;;;;3.30;0.90;;;20.40;99.90;;;;;;5067492;28;20526;-78
2022/06/07 09:54:59;;;;;;;3.35;1.40;;;20.50;99.90;;;;;;5064634;28;20187;-78
2022/06/07 09:57:33;;;;;;;6.22;2.35;;;20.50;99.90;;;;;;5067083;28;20500;-78
2022/06/07 10:00:11;;;;;;;1.30;0.95;;;20.60;99.90;;;;;;5066774;28;20098;-77
2022/06/07 10:02:45;;;;;;;5.32;1.60;;;20.70;99.90;;;;;;5066484;28;20033;-78
2022/06/07 10:05:25;;;;;;;2.42;1.20;;;20.90;99.90;;;;;;5068535;28;20127;-78
2022/06/07 10:08:20;;;;;;;4.78;1.98;;;21.10;99.90;;;;;;5066796;28;20041;-78
2022/06/07 10:10:58;;;;;;;4.97;1.50;;;21.10;99.90;;;;;;5067102;28;20131;-78
2022/06/07 10:13:34;;;;;;;5.38;1.60;;;21.10;99.90;;;;;;5066629;28;20041;-78
2022/06/07 10:16:09;;;;;;;4.15;1.30;;;21.20;99.90;;;;;;5066915;28;20132;-78
2022/06/07 10:19:02;;;;;;;3.13;1.35;;;21.30;99.90;;;;;;5066283;28;20041;-78
2022/06/07 10:21:31;;;;;;;3.13;1.73;;;21.40;99.90;;;;;;5049938;28;21374;-78
2022/06/07 10:24:01;;;;;;;2.15;1.02;;;21.30;99.90;;;;;;5067541;28;20033;-78
2022/06/07 10:26:51;;;;;;;5.80;1.08;;;21.30;99.90;;;;;;5048616;28;20040;-78
2022/06/07 10:29:36;;;;;;;3.50;1.13;;;21.10;99.90;;;;;;5067495;28;20044;-78
2022/06/07 10:32:25;;;;;;;2.28;1.20;;;21.00;99.90;;;;;;5064576;28;20051;-78
2022/06/07 10:35:05;;;;;;;4.47;1.10;;;20.80;99.90;;;;;;5049716;28;20502;-78
2022/06/07 10:37:45;;;;;;;2.67;1.27;;;20.70;99.90;;;;;;5066689;28;20048;-78
2022/06/07 10:40:19;;;;;;;2.30;1.10;;;20.60;99.90;;;;;;5067982;28;20045;-78
2022/06/07 10:42:51;;;;;;;1.90;1.58;;;20.70;99.90;;;;;;5066823;28;20072;-79
2022/06/07 10:45:21;;;;;;;4.68;1.15;;;20.90;99.90;;;;;;5065390;28;20037;-78
2022/06/07 10:47:56;;;;;;;4.53;1.52;;;21.10;99.90;;;;;;5065608;28;20095;-78
2022/06/07 10:50:25;;;;;;;3.08;1.15;;;21.30;99.90;;;;;;5065992;28;20048;-78
2022/06/07 10:53:05;;;;;;;2.30;1.10;;;21.40;99.90;;;;;;5067567;28;20217;-78
2022/06/07 10:55:40;;;;;;;5.88;1.25;;;21.30;99.90;;;;;;5064149;28;20036;-78
2022/06/07 10:58:31;;;;;;;2.05;1.45;;;21.30;99.90;;;;;;5066260;28;20082;-78
2022/06/07 11:01:27;;;;;;;4.57;1.48;;;21.40;99.90;;;;;;5062535;28;20245;-78
2022/06/07 11:09:19;;;;;;;4.82;1.52;;;21.60;99.90;;;;;;5059099;28;20064;-78
2022/06/07 11:09:56;;;;;;;3.22;1.00;;;21.70;99.90;;;;;;5066275;28;20136;-79
2022/06/07 11:12:26;;;;;;;5.28;2.25;;;21.70;99.90;;;;;;5065645;28;20467;-79
2022/06/07 11:15:09;;;;;;;1.35;0.85;;;21.80;99.90;;;;;;5048231;28;20044;-78
2022/06/07 11:18:03;;;;;;;3.35;1.63;;;21.90;99.90;;;;;;5061097;28;20041;-78
2022/06/07 11:20:35;;;;;;;5.85;1.63;;;21.90;99.90;;;;;;5064899;28;20140;-78
2022/06/07 11:23:17;;;;;;;2.08;1.27;;;21.70;99.90;;;;;;5064578;28;20064;-79
2022/06/07 11:26:00;;;;;;;3.60;1.90;;;21.70;99.90;;;;;;5066653;28;20047;-78
2022/06/07 11:28:30;;;;;;;4.03;1.02;;;21.90;99.90;;;;;;5081291;28;20060;-78
2022/06/07 11:31:20;;;;;;;2.72;1.65;;;22.10;99.90;;;;;;5082819;28;20055;-78
2022/06/07 11:33:52;;;;;;;1.42;0.65;;;22.30;99.90;;;;;;5077715;28;20091;-78
2022/06/07 11:36:20;;;;;;;1.80;0.60;;;22.30;99.90;;;;;;5065749;28;20063;-78
2022/06/07 11:41:40;;;;;;;0.45;0.43;;;22.60;99.90;;;;;;5066701;28;20114;-78
2022/06/07 11:44:12;;;;;;;3.90;1.65;;;22.70;99.90;;;;;;5064471;28;20052;-78
2022/06/07 11:46:57;;;;;;;0.35;0.30;;;22.80;99.90;;;;;;5062212;28;20466;-78
2022/06/07 11:49:23;;;;;;;0.55;0.40;;;22.80;99.90;;;;;;5071898;28;20059;-78
2022/06/07 11:52:11;;;;;;;1.42;0.40;;;22.80;99.90;;;;;;5093391;28;20134;-78
2022/06/07 11:54:46;;;;;;;0.90;0.50;;;22.80;99.90;;;;;;5092629;28;20036;-79
2022/06/07 11:57:28;;;;;;;0.98;0.50;;;22.80;99.90;;;;;;5074807;28;20040;-78
2022/06/07 11:59:58;;;;;;;2.13;0.63;;;22.60;99.90;;;;;;5092115;28;20051;-79
2022/06/07 12:02:38;;;;;;;2.22;0.80;;;22.50;99.90;;;;;;5085052;28;20103;-79
2022/06/07 12:05:28;;;;;;;1.85;0.40;;;22.40;99.90;;;;;;5068277;28;20064;-78
2022/06/07 12:08:31;;;;;;;1.10;0.50;;;22.50;99.90;;;;;;5063450;28;20052;-78
2022/06/07 12:11:20;;;;;;;1.02;0.50;;;22.50;99.80;;;;;;5065331;28;20044;-78
2022/06/07 12:14:43;;;;;;;1.38;0.77;;;22.60;99.60;;;;;;5065541;28;20051;-79
2022/06/07 12:17:29;;;;;;;;;;;22.60;99.40;;;;;;4997286;28;20082;-78
2022/06/07 12:19:55;;;;;;;1.70;0.70;;;22.30;99.00;;;;;;4995088;28;19928;-79
2022/06/07 12:22:45;;;;;;;2.42;0.77;;;22.20;98.80;;;;;;5042526;28;20045;-78
2022/06/07 12:25:35;;;;;;;0.32;0.30;;;22.10;98.90;;;;;;5065331;28;20053;-78
2022/06/07 12:32:10;;;;;;;4.80;0.68;;;22.30;99.10;;;;;;5064433;28;20044;-78
2022/06/07 12:38:35;;;;;;;1.23;0.70;;;22.50;98.60;;;;;;5022841;28;20571;-78
2022/06/07 12:47:50;;;;;;;;;;;;;;;;;;;;;
2022/06/07 12:50:46;;;;;;;2.83;0.80;;;22.20;97.40;;;;;;5066350;28;39607;-79
2022/06/07 12:56:35;;;;;;;1.30;0.93;;;22.60;96.80;;;;;;5068968;28;20080;-79
2022/06/07 12:59:31;;;;;;;2.03;0.85;;;22.50;96.30;;;;;;5065713;28;20041;-78
2022/06/07 13:05:44;;;;;;;;;;;;;;;;;;;;;
2022/06/07 13:08:45;;;;;;;1.77;0.60;;;22.30;95.20;;;;;;5066885;28;42527;-79
2022/06/07 13:11:33;;;;;;;0.90;0.70;;;22.20;94.80;;;;;;5050210;28;20073;-78
2022/06/07 13:14:36;;;;;;;0.77;0.57;;;22.40;94.60;;;;;;5066836;28;20121;-78
2022/06/07 13:18:02;;;;;;;2.45;1.17;;;22.30;94.60;;;;;;5067262;28;20643;-77
2022/06/07 13:20:37;;;;;;;3.40;0.57;;;22.40;94.40;;;;;;5067928;28;20788;-77
2022/06/07 13:23:34;;;;;;;1.77;0.80;;;22.10;93.90;;;;;;5083006;28;20048;-77
2022/06/07 13:26:23;;;;;;;1.77;0.77;;;22.00;93.70;;;;;;5068281;28;20602;-78
2022/06/07 13:33:07;;;;;;;3.35;1.10;;;22.10;93.80;;;;;;5008219;28;20050;-79
2022/06/07 13:36:32;;;;;;;2.80;1.23;;;22.20;93.70;;;;;;4976421;28;20986;-78
2022/06/07 13:39:33;;;;;;;;;;;;;;;;;;;;;
2022/06/07 13:42:27;;;;;;;4.53;1.35;;;22.60;92.80;;;;;;4984428;28;44930;-79
2022/06/07 13:48:03;;;;;;;3.40;0.70;;;22.60;92.30;;;;;;5063542;28;20044;-79
2022/06/07 13:54:00;;;;;;;1.95;1.70;;;22.40;92.10;;;;;;5068328;28;20049;-79
2022/06/07 13:56:40;;;;;;;5.28;0.70;;;22.30;92.20;;;;;;5066406;28;20437;-78
2022/06/07 13:59:20;;;;;;;1.90;0.60;;;22.10;92.00;;;;;;5064172;28;20049;-79
2022/06/07 14:02:08;;;;;;;3.42;1.05;;;22.20;92.00;;;;;;5083698;28;20796;-79
2022/06/07 14:04:50;;;;;;;3.92;0.98;;;22.30;91.90;;;;;;5067819;28;20049;-78
2022/06/07 14:07:18;;;;;;;;;;;22.30;92.00;;;;;;5066717;28;20533;-79
2022/06/07 14:10:10;;;;;;;3.22;0.60;;;22.40;91.60;;;;;;5066400;28;19930;-79
2022/06/07 14:12:46;;;;;;;2.55;0.70;;;22.70;91.90;;;;;;5066109;28;20634;-79
2022/06/07 14:15:25;;;;;;;2.03;0.68;;;23.00;91.80;;;;;;5068110;28;20529;-79
2022/06/07 14:18:53;;;;;;;1.95;0.70;;;23.20;91.60;;;;;;5064656;28;20040;-78
2022/06/07 14:21:27;;;;;;;1.17;0.63;;;23.20;91.20;;;;;;5081840;28;20200;-79
2022/06/07 14:24:15;;;;;;;1.75;0.65;;;23.20;91.20;;;;;;5069410;28;20044;-79
2022/06/07 14:26:55;;;;;;;2.92;0.70;;;23.30;91.10;;;;;;5064025;28;20530;-78
2022/06/07 14:29:35;;;;;;;3.53;0.70;;;23.30;91.20;;;;;;5050201;28;20049;-78
2022/06/07 14:32:44;;;;;;;2.67;1.15;;;23.50;91.10;;;;;;5065026;28;20053;-78
2022/06/07 14:35:38;;;;;;;2.65;0.80;;;23.60;91.10;;;;;;5065719;28;20124;-79
2022/06/07 14:38:32;;;;;;;1.67;0.70;;;23.80;91.10;;;;;;5080601;28;20091;-78
2022/06/07 14:41:07;;;;;;;1.98;0.90;;;23.60;91.10;;;;;;5065675;28;20132;-78
2022/06/07 14:43:53;;;;;;;1.38;0.63;;;23.30;91.00;;;;;;5065480;28;20036;-78
2022/06/07 14:46:31;;;;;;;4.90;1.42;;;23.40;90.70;;;;;;5050825;28;20501;-78
2022/06/07 14:49:42;;;;;;;3.83;1.20;;;23.40;90.80;;;;;;5081314;28;20045;-79
2022/06/07 14:52:25;;;;;;;1.55;0.70;;;23.40;90.90;;;;;;4983797;28;20423;-79
2022/06/07 14:54:59;;;;;;;1.58;0.70;;;23.30;91.00;;;;;;4985797;28;20117;-79
2022/06/07 14:58:04;;;;;;;3.33;0.93;;;23.20;91.10;;;;;;5029133;28;20055;-79
2022/06/07 15:00:59;;;;;;;1.67;0.63;;;23.10;91.30;;;;;;5065910;28;20527;-79
2022/06/07 15:03:30;;;;;;;1.65;0.70;;;23.50;91.30;;;;;;5057731;28;20136;-79
2022/06/07 15:05:59;;;;;;;3.23;1.10;;;23.60;91.10;;;;;;5063765;28;20037;-79
2022/06/07 15:08:28;;;;;;;2.60;0.80;;;23.70;91.20;;;;;;5066030;28;20036;-79
2022/06/07 15:11:26;;;;;;;2.40;0.70;;;23.80;91.30;;;;;;5066624;28;20071;-79
2022/06/07 15:13:57;;;;;;;0.68;0.52;;;23.90;91.20;;;;;;5067289;28;20612;-79
2022/06/07 15:16:39;;;;;;;1.85;0.57;;;24.00;91.10;;;;;;5066567;28;20041;-79
2022/06/07 15:19:21;;;;;;;2.50;0.77;;;23.70;91.10;;;;;;5066443;28;20052;-79
2022/06/07 15:21:59;;;;;;;2.60;0.85;;;24.10;91.10;;;;;;5066403;28;20108;-79
2022/06/07 15:24:27;;;;;;;4.50;1.17;;;24.00;91.00;;;;;;5082224;28;20128;-78
2022/06/07 15:26:53;;;;;;;3.13;1.10;;;23.80;90.90;;;;;;5065622;28;20087;-78
2022/06/07 15:32:29;;;;;;;2.20;1.25;;;23.70;91.30;;;;;;5066628;28;20132;-79
2022/06/07 15:35:20;;;;;;;2.92;1.05;;;24.00;91.40;;;;;;5065355;28;20099;-79
2022/06/07 15:37:56;;;;;;;6.03;1.40;;;24.90;91.40;;;;;;5064696;28;20059;-78
2022/06/07 15:40:32;;;;;;;3.88;1.10;;;24.30;91.00;;;;;;5065555;28;20511;-78
2022/06/07 15:43:02;;;;;;;3.58;1.40;;;24.10;91.10;;;;;;5065194;28;20049;-78
2022/06/07 15:45:50;;;;;;;3.42;1.17;;;24.30;91.10;;;;;;5065638;28;20040;-78